Time;durP1;ratioP1;P1;durP2;ratioP2;P2;SDS_P1;SDS_P2;PMS_P1;PMS_P2;Temp;Humidity;BMP_temperature;BMP_pressure;BME280_temperature;BME280_humidity;BME280_pressure;Samples;Min_cycle;Max_cycle;Signal;HPM_P1;HPM_P2
2022/11/01 00:00:04;;;;;;;124.60;45.65;;;;;;;;;;8362944;28;20098;-81
2022/11/01 00:04:26;;;;;;;115.18;43.45;;;;;;;;;;8367711;28;20476;-84
2022/11/01 00:08:29;;;;;;;105.45;42.08;;;;;;;;;;8367865;28;20041;-82
2022/11/01 00:12:33;;;;;;;228.20;66.60;;;;;;;;;;8363845;28;20060;-84
2022/11/01 00:16:36;;;;;;;162.82;53.25;;;;;;;;;;8361448;28;20049;-82
2022/11/01 00:20:38;;;;;;;196.43;58.58;;;;;;;;;;8359660;28;20412;-82
2022/11/01 00:24:41;;;;;;;178.52;56.53;;;;;;;;;;8349782;28;20049;-81
2022/11/01 00:28:45;;;;;;;169.50;51.67;;;;;;;;;;8366078;28;20040;-81
2022/11/01 00:32:47;;;;;;;465.17;121.47;;;;;;;;;;8360972;28;20045;-86
2022/11/01 00:36:49;;;;;;;582.75;153.35;;;;;;;;;;8361841;28;20041;-86
2022/11/01 00:40:52;;;;;;;912.13;238.35;;;;;;;;;;8363612;28;20044;-82
2022/11/01 00:44:57;;;;;;;1102.32;280.33;;;;;;;;;;8362921;28;20127;-93
2022/11/01 00:49:00;;;;;;;1999.90;550.05;;;;;;;;;;8364159;28;20041;-89
2022/11/01 00:53:02;;;;;;;499.13;127.53;;;;;;;;;;8356446;28;20052;-87
2022/11/01 00:57:04;;;;;;;269.02;75.93;;;;;;;;;;8361073;28;20045;-81
2022/11/01 01:01:08;;;;;;;141.40;47.63;;;;;;;;;;8362747;28;20049;-84
2022/11/01 01:05:14;;;;;;;95.05;34.17;;;;;;;;;;8363886;28;20151;-82
2022/11/01 01:09:17;;;;;;;92.60;35.08;;;;;;;;;;8363733;28;20044;-85
2022/11/01 01:13:22;;;;;;;187.07;63.63;;;;;;;;;;8359869;28;20049;-85
2022/11/01 01:17:31;;;;;;;231.77;85.22;;;;;;;;;;8356953;28;20052;-86
2022/11/01 01:21:34;;;;;;;1646.97;397.30;;;;;;;;;;8346403;28;20062;-91
2022/11/01 01:25:42;;;;;;;1126.38;305.58;;;;;;;;;;8363886;28;20397;-87
2022/11/01 01:29:48;;;;;;;1653.80;441.98;;;;;;;;;;8364224;28;20083;-83
2022/11/01 01:33:54;;;;;;;479.42;147.77;;;;;;;;;;8361577;28;20099;-84
2022/11/01 01:37:57;;;;;;;431.23;127.40;;;;;;;;;;8352511;28;20041;-84
2022/11/01 01:42:01;;;;;;;427.48;129.07;;;;;;;;;;8364306;28;20055;-85
2022/11/01 01:46:04;;;;;;;192.85;61.08;;;;;;;;;;8364195;28;20155;-87
2022/11/01 01:50:10;;;;;;;161.23;50.90;;;;;;;;;;8365907;28;20774;-84
2022/11/01 01:54:22;;;;;;;117.32;40.17;;;;;;;;;;8745533;22;20066;-84
2022/11/01 01:58:29;;;;;;;84.13;32.60;;;;;;;;;;8332468;28;20049;-84
2022/11/01 02:02:34;;;;;;;84.00;32.95;;;;;;;;;;8301465;28;20050;-84
2022/11/01 02:06:41;;;;;;;87.25;32.80;;;;;;;;;;8303682;28;20052;-84
2022/11/01 02:10:44;;;;;;;103.40;34.83;;;;;;;;;;8323420;28;20099;-88
2022/11/01 02:14:47;;;;;;;96.15;35.13;;;;;;;;;;8303240;28;20050;-84
2022/11/01 02:19:00;;;;;;;103.90;36.15;;;;;;;;;;8299719;28;20054;-89
2022/11/01 02:23:33;;;;;;;104.72;35.78;;;;;;;;;;8307484;28;20509;-83
2022/11/01 02:27:54;;;;;;;101.65;37.28;;;;;;;;;;8311587;28;20111;-86
2022/11/01 02:32:12;;;;;;;94.78;36.72;;;;;;;;;;8296954;28;20046;-83
2022/11/01 02:36:24;;;;;;;110.25;35.30;;;;;;;;;;8313829;28;20519;-83
2022/11/01 02:40:35;;;;;;;104.55;33.35;;;;;;;;;;8305083;28;20049;-85
2022/11/01 02:44:45;;;;;;;107.68;34.50;;;;;;;;;;8304013;28;20157;-84
2022/11/01 02:48:52;;;;;;;91.80;32.78;;;;;;;;;;8315038;28;20050;-85
2022/11/01 02:52:55;;;;;;;99.47;33.67;;;;;;;;;;8316598;28;20080;-83
2022/11/01 02:57:00;;;;;;;90.38;31.23;;;;;;;;;;8312073;28;20127;-84
2022/11/01 03:01:14;;;;;;;107.07;33.65;;;;;;;;;;8300864;28;20105;-90
2022/11/01 03:05:27;;;;;;;95.40;33.92;;;;;;;;;;8313084;28;20096;-89
2022/11/01 03:09:33;;;;;;;100.22;32.65;;;;;;;;;;8304188;28;20046;-83
2022/11/01 03:13:57;;;;;;;92.80;33.17;;;;;;;;;;8298300;28;20042;-84
2022/11/01 03:18:04;;;;;;;89.82;30.98;;;;;;;;;;8314567;28;20069;-83
2022/11/01 03:22:13;;;;;;;103.15;35.85;;;;;;;;;;8302341;28;20478;-84
2022/11/01 03:26:23;;;;;;;92.35;32.80;;;;;;;;;;8314706;28;20053;-85
2022/11/01 03:30:25;;;;;;;102.05;34.20;;;;;;;;;;8296836;28;20132;-86
2022/11/01 03:34:31;;;;;;;91.28;31.60;;;;;;;;;;8313966;28;20053;-85
2022/11/01 03:38:40;;;;;;;100.25;32.92;;;;;;;;;;8304673;28;20199;-83
2022/11/01 03:42:49;;;;;;;83.53;30.77;;;;;;;;;;8308019;28;20057;-83
2022/11/01 03:46:51;;;;;;;79.60;30.58;;;;;;;;;;8298036;28;20041;-86
2022/11/01 03:50:56;;;;;;;71.90;26.92;;;;;;;;;;8315815;28;20144;-83
2022/11/01 03:55:16;;;;;;;97.10;31.92;;;;;;;;;;8309434;28;20224;-87
2022/11/01 03:59:22;;;;;;;110.95;35.42;;;;;;;;;;8306300;28;20536;-85
2022/11/01 04:03:24;;;;;;;96.15;31.58;;;;;;;;;;8823978;22;20056;-84
2022/11/01 04:07:27;;;;;;;78.30;27.17;;;;;;;;;;8428231;28;20441;-84
2022/11/01 04:11:30;;;;;;;92.10;30.70;;;;;;;;;;8427178;28;20055;-85
2022/11/01 04:24:11;;;;;;;93.38;29.48;;;;;;;;;;8418405;28;20404;-86
2022/11/01 04:28:25;;;;;;;94.20;31.00;;;;;;;;;;8423650;28;20090;-84
2022/11/01 04:32:29;;;;;;;85.05;30.65;;;;;;;;;;8426917;28;20062;-83
2022/11/01 04:36:34;;;;;;;91.03;32.35;;;;;;;;;;8426876;28;20051;-83
2022/11/01 04:40:39;;;;;;;98.43;34.17;;;;;;;;;;8428086;28;20055;-86
2022/11/01 04:44:45;;;;;;;106.70;33.10;;;;;;;;;;8426495;28;20169;-82
2022/11/01 04:48:49;;;;;;;95.15;31.67;;;;;;;;;;8426921;28;20138;-85
2022/11/01 04:52:53;;;;;;;81.75;29.35;;;;;;;;;;8430560;28;20047;-83
2022/11/01 04:56:56;;;;;;;76.50;28.13;;;;;;;;;;8433335;28;20044;-84
2022/11/01 05:01:05;;;;;;;70.35;26.08;;;;;;;;;;8431796;28;20059;-84
2022/11/01 05:05:12;;;;;;;84.35;30.83;;;;;;;;;;8432736;28;20159;-86
2022/11/01 05:09:14;;;;;;;104.32;34.40;;;;;;;;;;8421239;28;20130;-83
2022/11/01 05:13:20;;;;;;;100.45;36.10;;;;;;;;;;8432047;28;20515;-84
2022/11/01 05:17:25;;;;;;;108.45;43.50;;;;;;;;;;8427077;28;20044;-84
2022/11/01 05:21:31;;;;;;;127.55;41.60;;;;;;;;;;8432041;28;20044;-84
2022/11/01 05:25:36;;;;;;;80.95;29.40;;;;;;;;;;8432040;28;20079;-83
2022/11/01 05:29:41;;;;;;;79.53;27.10;;;;;;;;;;8431399;28;20054;-83
2022/11/01 05:38:04;;;;;;;86.82;29.13;;;;;;;;;;9587637;22;20062;-83
2022/11/01 05:42:07;;;;;;;117.95;41.80;;;;;;;;;;8265112;28;20042;-84
2022/11/01 05:46:09;;;;;;;94.43;31.88;;;;;;;;;;8267509;28;20060;-87
2022/11/01 05:50:13;;;;;;;104.65;33.47;;;;;;;;;;8267396;28;20062;-89
2022/11/01 05:54:17;;;;;;;100.45;31.88;;;;;;;;;;8265641;28;20438;-84
2022/11/01 05:58:20;;;;;;;99.55;33.70;;;;;;;;;;8258120;28;20043;-87
2022/11/01 06:02:22;;;;;;;114.57;39.63;;;;;;;;;;8821712;23;20137;-85
2022/11/01 06:06:25;;;;;;;101.85;40.08;;;;;;;;;;8267416;28;20053;-83
2022/11/01 06:10:29;;;;;;;93.57;40.45;;;;;;;;;;8267731;28;20053;-86
2022/11/01 06:14:31;;;;;;;115.20;42.10;;;;;;;;;;8264302;28;20051;-90
2022/11/01 06:18:34;;;;;;;119.30;41.45;;;;;;;;;;8274455;28;20107;-85
2022/11/01 06:22:36;;;;;;;82.93;34.83;;;;;;;;;;8268361;28;20052;-84
2022/11/01 06:26:42;;;;;;;71.13;32.35;;;;;;;;;;8265477;28;20069;-84
2022/11/01 06:30:46;;;;;;;56.15;26.90;;;;;;;;;;8263602;28;20148;-89
2022/11/01 06:34:51;;;;;;;64.72;27.40;;;;;;;;;;8264636;28;20050;-84
2022/11/01 06:38:56;;;;;;;70.53;32.97;;;;;;;;;;8264649;28;20515;-85
2022/11/01 06:43:05;;;;;;;64.78;32.92;;;;;;;;;;8264912;28;20129;-83
2022/11/01 06:47:08;;;;;;;66.88;35.40;;;;;;;;;;8265013;28;20050;-89
2022/11/01 06:51:13;;;;;;;75.95;39.92;;;;;;;;;;8264089;28;20100;-84
2022/11/01 06:55:16;;;;;;;58.60;34.60;;;;;;;;;;8264062;28;20154;-84
2022/11/01 06:59:20;;;;;;;47.65;28.30;;;;;;;;;;8263638;28;20129;-84
2022/11/01 07:03:23;;;;;;;34.22;20.88;;;;;;;;;;8262458;28;20062;-84
2022/11/01 07:07:26;;;;;;;42.53;25.45;;;;;;;;;;8264108;28;20050;-86
2022/11/01 07:11:29;;;;;;;61.80;37.10;;;;;;;;;;8276499;28;20073;-84
2022/11/01 07:15:34;;;;;;;29.38;19.85;;;;;;;;;;8279109;28;20056;-86
2022/11/01 07:19:36;;;;;;;29.85;20.15;;;;;;;;;;8287691;28;20073;-83
2022/11/01 07:23:39;;;;;;;37.75;22.45;;;;;;;;;;8286721;28;20129;-86
2022/11/01 07:27:42;;;;;;;22.83;15.57;;;;;;;;;;8279005;28;20081;-85
2022/11/01 07:37:13;;;;;;;19.13;13.52;;;;;;;;;;8138545;28;20635;-86
2022/11/01 07:41:17;;;;;;;20.40;14.18;;;;;;;;;;8260913;28;20050;-86
2022/11/01 07:45:19;;;;;;;13.93;10.73;;;;;;;;;;8261294;28;20126;-89
2022/11/01 07:49:22;;;;;;;14.50;10.48;;;;;;;;;;8254187;28;20402;-89
2022/11/01 07:53:26;;;;;;;13.75;10.50;;;;;;;;;;8253061;28;20567;-86
2022/11/01 07:57:29;;;;;;;20.90;10.00;;;;;;;;;;8256562;28;20062;-93
2022/11/01 08:01:31;;;;;;;11.52;7.28;;;;;;;;;;8257034;28;20065;-87
2022/11/01 08:05:35;;;;;;;12.35;6.80;;;;;;;;;;8255368;28;20511;-89
2022/11/01 08:09:39;;;;;;;12.27;6.78;;;;;;;;;;8254746;28;20499;-89
2022/11/01 08:13:42;;;;;;;9.77;6.63;;;;;;;;;;8255288;28;20054;-93
2022/11/01 08:17:44;;;;;;;11.93;8.00;;;;;;;;;;8242480;28;20103;-86
2022/11/01 08:21:49;;;;;;;11.52;7.57;;;;;;;;;;8245544;28;20133;-89
2022/11/01 08:25:54;;;;;;;10.30;5.85;;;;;;;;;;8257591;28;20185;-88
2022/11/01 08:29:59;;;;;;;9.85;6.63;;;;;;;;;;8254225;28;20053;-85
2022/11/01 08:34:02;;;;;;;8.43;5.82;;;;;;;;;;8347142;23;20057;-89
2022/11/01 08:38:05;;;;;;;14.35;9.50;;;;;;;;;;8260317;28;20104;-85
2022/11/01 08:42:09;;;;;;;10.95;6.70;;;;;;;;;;8261328;28;20050;-84
2022/11/01 08:46:12;;;;;;;17.83;7.38;;;;;;;;;;8265060;28;20046;-85
2022/11/01 08:50:16;;;;;;;15.68;10.52;;;;;;;;;;8252907;28;20043;-86
2022/11/01 08:54:19;;;;;;;10.30;6.70;;;;;;;;;;8268098;28;20626;-85
2022/11/01 08:58:23;;;;;;;10.65;6.93;;;;;;;;;;9219479;23;20058;-85
2022/11/01 09:02:27;;;;;;;9.75;7.10;;;;;;;;;;8267945;28;20594;-83
2022/11/01 09:06:30;;;;;;;11.45;6.93;;;;;;;;;;8269009;28;20702;-83
2022/11/01 09:10:33;;;;;;;12.05;6.72;;;;;;;;;;8509625;23;20062;-85
2022/11/01 09:14:37;;;;;;;12.18;6.97;;;;;;;;;;8301348;28;20378;-84
2022/11/01 09:18:40;;;;;;;11.02;7.45;;;;;;;;;;8300074;28;20065;-87
2022/11/01 09:22:42;;;;;;;11.23;7.50;;;;;;;;;;8300918;28;20042;-84
2022/11/01 09:26:45;;;;;;;12.13;8.35;;;;;;;;;;8300388;28;20049;-84
2022/11/01 09:30:51;;;;;;;16.00;8.88;;;;;;;;;;8300852;28;20096;-84
2022/11/01 09:34:56;;;;;;;14.40;8.45;;;;;;;;;;8287130;28;20062;-87
2022/11/01 09:38:59;;;;;;;14.48;10.25;;;;;;;;;;8288548;28;20081;-84
2022/11/01 09:43:03;;;;;;;18.30;11.57;;;;;;;;;;8297779;28;20053;-84
2022/11/01 09:47:16;;;;;;;12.95;8.70;;;;;;;;;;8292765;28;20060;-84
2022/11/01 09:51:22;;;;;;;12.30;8.23;;;;;;;;;;8299466;28;20099;-87
2022/11/01 09:55:33;;;;;;;18.40;10.25;;;;;;;;;;8300268;28;20042;-84
2022/11/01 09:59:40;;;;;;;12.00;7.85;;;;;;;;;;8299597;28;20104;-84
2022/11/01 10:04:03;;;;;;;15.65;8.48;;;;;;;;;;8300036;28;20481;-84
2022/11/01 10:08:14;;;;;;;13.13;8.70;;;;;;;;;;8299683;28;20038;-84
2022/11/01 10:12:33;;;;;;;18.73;8.70;;;;;;;;;;8301605;28;20046;-88
2022/11/01 10:16:40;;;;;;;13.90;9.45;;;;;;;;;;8299449;28;20057;-86
2022/11/01 10:20:45;;;;;;;16.75;9.70;;;;;;;;;;8298026;28;20132;-85
2022/11/01 10:24:51;;;;;;;16.45;10.35;;;;;;;;;;8299911;28;20046;-84
2022/11/01 10:29:01;;;;;;;16.13;10.57;;;;;;;;;;8299363;28;20413;-86
2022/11/01 10:33:19;;;;;;;17.48;9.98;;;;;;;;;;8298922;28;20050;-84
2022/11/01 10:37:27;;;;;;;16.98;10.05;;;;;;;;;;8285025;28;20046;-85
2022/11/01 10:41:37;;;;;;;17.00;10.15;;;;;;;;;;8298456;28;20478;-84
2022/11/01 10:45:42;;;;;;;17.15;10.63;;;;;;;;;;8298326;28;20073;-84
2022/11/01 10:49:50;;;;;;;21.92;9.95;;;;;;;;;;8297870;28;20046;-84
2022/11/01 10:53:55;;;;;;;14.80;10.60;;;;;;;;;;8297569;28;20049;-83
2022/11/01 10:58:01;;;;;;;14.50;9.25;;;;;;;;;;8298116;28;20077;-84
2022/11/01 11:02:09;;;;;;;20.83;10.45;;;;;;;;;;8297910;28;20050;-84
2022/11/01 11:06:15;;;;;;;15.15;9.82;;;;;;;;;;8297798;28;20069;-84
2022/11/01 11:10:23;;;;;;;21.02;11.70;;;;;;;;;;8297390;28;20082;-84
2022/11/01 11:14:27;;;;;;;16.98;11.02;;;;;;;;;;8296988;28;20046;-83
2022/11/01 11:18:32;;;;;;;16.50;11.40;;;;;;;;;;8297496;28;20057;-87
2022/11/01 11:22:38;;;;;;;19.08;12.15;;;;;;;;;;8297383;28;20046;-86
2022/11/01 11:26:42;;;;;;;24.35;12.48;;;;;;;;;;8297659;28;20073;-84
2022/11/01 11:30:47;;;;;;;21.27;12.65;;;;;;;;;;8297123;28;20544;-84
2022/11/01 11:34:56;;;;;;;23.88;13.90;;;;;;;;;;8297026;28;20042;-85
2022/11/01 11:39:00;;;;;;;22.67;14.90;;;;;;;;;;8298016;28;20478;-84
2022/11/01 11:43:22;;;;;;;27.00;16.42;;;;;;;;;;8297610;28;20061;-86
2022/11/01 11:47:27;;;;;;;29.45;16.60;;;;;;;;;;8297848;28;20046;-84
2022/11/01 11:51:32;;;;;;;31.80;17.48;;;;;;;;;;8282630;28;20512;-89
2022/11/01 11:55:41;;;;;;;32.25;18.45;;;;;;;;;;8286539;28;20045;-86
2022/11/01 11:59:49;;;;;;;31.00;17.27;;;;;;;;;;8277979;28;20056;-86
2022/11/01 12:03:56;;;;;;;38.80;20.25;;;;;;;;;;8301336;28;20058;-85
2022/11/01 12:07:58;;;;;;;33.03;19.45;;;;;;;;;;8302452;28;20069;-85
2022/11/01 12:12:07;;;;;;;32.13;18.27;;;;;;;;;;8303323;28;20111;-84
2022/11/01 12:16:19;;;;;;;30.90;18.70;;;;;;;;;;8303528;28;20494;-88
2022/11/01 12:20:24;;;;;;;35.38;19.52;;;;;;;;;;8302466;28;20486;-86
2022/11/01 12:24:29;;;;;;;29.80;17.27;;;;;;;;;;8303177;28;20045;-85
2022/11/01 12:28:36;;;;;;;35.80;21.42;;;;;;;;;;8285079;28;20065;-90
2022/11/01 12:32:49;;;;;;;40.40;26.88;;;;;;;;;;8297767;28;20486;-87
2022/11/01 12:36:57;;;;;;;50.00;28.42;;;;;;;;;;8288395;28;20060;-90
2022/11/01 12:41:30;;;;;;;30.23;16.50;;;;;;;;;;8306459;28;20050;-85
2022/11/01 12:45:45;;;;;;;35.17;18.80;;;;;;;;;;8289834;28;20153;-84
2022/11/01 12:49:57;;;;;;;18.58;10.93;;;;;;;;;;8291510;28;20133;-84
2022/11/01 12:54:10;;;;;;;27.73;16.08;;;;;;;;;;8295077;28;20065;-84
2022/11/01 12:58:17;;;;;;;30.08;16.95;;;;;;;;;;8285260;28;20042;-85
2022/11/01 13:02:46;;;;;;;33.63;19.15;;;;;;;;;;8289408;28;20050;-88
2022/11/01 13:07:15;;;;;;;31.25;18.58;;;;;;;;;;8285624;28;20437;-85
2022/11/01 13:11:29;;;;;;;37.20;21.50;;;;;;;;;;8283584;28;20148;-84
2022/11/01 13:15:43;;;;;;;36.55;20.50;;;;;;;;;;8280285;28;20066;-86
2022/11/01 13:19:58;;;;;;;32.85;17.83;;;;;;;;;;8294423;28;20473;-87
2022/11/01 13:24:11;;;;;;;30.95;17.85;;;;;;;;;;8292571;28;20045;-88
2022/11/01 13:33:42;;;;;;;31.00;17.65;;;;;;;;;;8178827;28;20155;-85
2022/11/01 13:37:51;;;;;;;35.35;19.20;;;;;;;;;;8185234;28;20488;-86
2022/11/01 13:42:05;;;;;;;33.78;18.75;;;;;;;;;;8184929;28;20051;-85
2022/11/01 13:51:37;;;;;;;33.07;19.63;;;;;;;;;;8176855;28;20673;-87
2022/11/01 13:56:00;;;;;;;34.28;18.85;;;;;;;;;;8161316;28;20249;-87
2022/11/01 14:00:43;;;;;;;32.00;18.05;;;;;;;;;;8178393;28;20055;-87
2022/11/01 14:04:56;;;;;;;32.33;19.20;;;;;;;;;;8271756;28;20054;-87
2022/11/01 14:09:31;;;;;;;32.63;19.17;;;;;;;;;;8279830;28;20057;-88
2022/11/01 14:13:55;;;;;;;33.85;18.02;;;;;;;;;;8284381;28;20461;-86
2022/11/01 14:43:18;;;;;;;34.17;17.88;;;;;;;;;;8150764;28;20597;-86
2022/11/01 14:58:31;;;;;;;31.83;16.60;;;;;;;;;;8188808;28;20145;-84
2022/11/01 15:02:33;;;;;;;61.67;33.58;;;;;;;;;;8200643;28;20054;-87
2022/11/01 15:06:42;;;;;;;37.92;20.27;;;;;;;;;;8194573;28;20440;-87
2022/11/01 15:10:45;;;;;;;37.45;19.27;;;;;;;;;;8199183;28;20130;-84
2022/11/01 15:14:51;;;;;;;32.67;18.52;;;;;;;;;;8197262;28;20135;-86
2022/11/01 15:18:57;;;;;;;35.00;19.27;;;;;;;;;;8199164;28;20495;-89
2022/11/01 15:22:59;;;;;;;34.83;17.92;;;;;;;;;;8195010;28;21262;-84
2022/11/01 15:27:06;;;;;;;30.85;17.73;;;;;;;;;;8188556;28;20048;-86
2022/11/01 15:31:10;;;;;;;33.17;17.98;;;;;;;;;;8194243;28;20618;-85
2022/11/01 15:35:22;;;;;;;35.90;18.08;;;;;;;;;;8233837;28;20410;-86
2022/11/01 15:39:28;;;;;;;35.92;18.80;;;;;;;;;;8248451;28;20042;-85
2022/11/01 15:43:31;;;;;;;35.67;18.25;;;;;;;;;;8249938;28;20111;-86
2022/11/01 15:47:36;;;;;;;37.22;19.70;;;;;;;;;;8246421;28;20053;-93
2022/11/01 15:51:42;;;;;;;34.63;17.88;;;;;;;;;;8246924;28;20679;-83
2022/11/01 15:55:47;;;;;;;47.75;20.35;;;;;;;;;;8257012;28;20077;-87
2022/11/01 15:59:57;;;;;;;43.92;20.08;;;;;;;;;;8250536;28;20047;-92
2022/11/01 16:04:07;;;;;;;40.88;20.92;;;;;;;;;;8250951;28;20046;-92
2022/11/01 16:08:22;;;;;;;36.72;18.85;;;;;;;;;;8243824;28;20406;-85
2022/11/01 16:12:29;;;;;;;39.38;20.50;;;;;;;;;;8250442;28;20575;-87
2022/11/01 16:16:57;;;;;;;43.85;22.33;;;;;;;;;;8249599;28;20120;-87
2022/11/01 16:21:07;;;;;;;71.68;33.10;;;;;;;;;;8253850;28;20157;-85
2022/11/01 16:25:20;;;;;;;64.13;28.77;;;;;;;;;;8243970;28;20462;-87
2022/11/01 16:29:39;;;;;;;97.75;44.78;;;;;;;;;;8253005;28;20406;-88
2022/11/01 16:33:48;;;;;;;115.75;49.53;;;;;;;;;;8249435;28;20050;-90
2022/11/01 16:37:52;;;;;;;102.35;44.42;;;;;;;;;;8245344;28;20050;-89
2022/11/01 16:41:56;;;;;;;174.98;66.28;;;;;;;;;;8346042;23;20137;-85
2022/11/01 16:45:59;;;;;;;126.22;53.63;;;;;;;;;;8279035;28;20042;-85
2022/11/01 16:50:02;;;;;;;125.68;52.40;;;;;;;;;;8282518;28;20431;-85
2022/11/01 16:54:09;;;;;;;107.90;47.63;;;;;;;;;;8280000;28;20046;-88
2022/11/01 16:58:17;;;;;;;153.00;63.03;;;;;;;;;;8279347;28;20053;-83
2022/11/01 17:02:22;;;;;;;202.70;84.30;;;;;;;;;;8275869;28;20046;-86
2022/11/01 17:06:27;;;;;;;191.27;80.72;;;;;;;;;;8286542;28;20405;-84
2022/11/01 17:10:31;;;;;;;240.50;98.65;;;;;;;;;;8291107;28;20069;-87
2022/11/01 17:14:36;;;;;;;131.45;53.83;;;;;;;;;;8285542;28;20133;-90
2022/11/01 17:18:44;;;;;;;225.05;87.95;;;;;;;;;;8282620;28;20466;-83
2022/11/01 17:22:49;;;;;;;125.22;55.17;;;;;;;;;;8288471;28;20144;-90
2022/11/01 17:26:57;;;;;;;117.68;52.85;;;;;;;;;;8279295;28;20047;-86
2022/11/01 17:31:01;;;;;;;119.63;46.45;;;;;;;;;;8291933;28;20041;-89
2022/11/01 17:35:06;;;;;;;125.55;56.22;;;;;;;;;;8289768;28;20058;-89
2022/11/01 17:39:12;;;;;;;94.65;43.42;;;;;;;;;;8301078;28;20054;-88
2022/11/01 17:43:19;;;;;;;95.70;45.95;;;;;;;;;;8302662;28;20050;-87
2022/11/01 17:47:25;;;;;;;96.15;46.55;;;;;;;;;;8312860;28;20042;-89
2022/11/01 17:51:27;;;;;;;159.88;61.38;;;;;;;;;;8312277;28;20257;-87
2022/11/01 17:55:30;;;;;;;118.75;53.65;;;;;;;;;;8324589;28;20101;-87
2022/11/01 17:59:35;;;;;;;142.55;62.67;;;;;;;;;;8330526;28;20042;-87
2022/11/01 18:03:38;;;;;;;74.85;36.20;;;;;;;;;;8305564;28;20533;-87
2022/11/01 18:07:44;;;;;;;71.63;34.25;;;;;;;;;;8297516;28;20056;-87
2022/11/01 18:11:52;;;;;;;70.15;33.95;;;;;;;;;;8287091;28;20053;-88
2022/11/01 18:16:07;;;;;;;64.80;34.83;;;;;;;;;;8286542;28;20050;-89
2022/11/01 18:20:23;;;;;;;59.03;30.75;;;;;;;;;;8296145;28;20046;-90
2022/11/01 18:24:34;;;;;;;58.38;30.42;;;;;;;;;;8269469;28;20053;-89
2022/11/01 18:28:40;;;;;;;62.00;31.07;;;;;;;;;;8285444;28;20050;-89
2022/11/01 18:32:54;;;;;;;62.72;29.33;;;;;;;;;;8296977;28;20405;-89
2022/11/01 18:37:08;;;;;;;81.10;32.85;;;;;;;;;;8284049;28;20056;-86
2022/11/01 18:41:19;;;;;;;70.15;34.38;;;;;;;;;;8294604;28;20050;-87
2022/11/01 18:45:25;;;;;;;74.15;33.83;;;;;;;;;;8295838;28;20050;-89
2022/11/01 18:49:35;;;;;;;66.22;27.17;;;;;;;;;;8297392;28;20077;-86
2022/11/01 18:53:53;;;;;;;64.65;26.13;;;;;;;;;;8296865;28;20481;-86
2022/11/01 18:58:01;;;;;;;60.33;25.73;;;;;;;;;;8297649;28;20677;-88
2022/11/01 19:02:26;;;;;;;58.95;22.77;;;;;;;;;;8296674;28;20085;-87
2022/11/01 19:06:46;;;;;;;53.40;23.02;;;;;;;;;;8296256;28;20116;-86
2022/11/01 19:10:53;;;;;;;67.13;24.80;;;;;;;;;;8296787;28;20057;-87
2022/11/01 19:15:10;;;;;;;63.45;25.23;;;;;;;;;;8296773;28;20050;-90
2022/11/01 19:19:31;;;;;;;61.47;22.30;;;;;;;;;;8296520;28;20099;-86
2022/11/01 19:24:08;;;;;;;66.80;26.30;;;;;;;;;;8301182;28;20100;-86
2022/11/01 23:14:59;;;;;;;38.88;17.60;;;;;;;;;;9467731;22;20508;-85
2022/11/01 23:19:06;;;;;;;34.00;17.27;;;;;;;;;;8363861;28;20043;-88
2022/11/01 23:23:14;;;;;;;38.45;18.75;;;;;;;;;;8363639;28;20048;-88
2022/11/01 23:27:18;;;;;;;32.30;16.33;;;;;;;;;;8363481;28;20045;-85
2022/11/01 23:31:23;;;;;;;32.95;16.67;;;;;;;;;;8363341;28;20071;-85
2022/11/01 23:35:26;;;;;;;33.85;17.35;;;;;;;;;;8362074;28;20568;-86
2022/11/01 23:39:33;;;;;;;33.45;18.00;;;;;;;;;;8363119;28;20040;-84
2022/11/01 23:43:39;;;;;;;44.42;19.23;;;;;;;;;;8363183;28;20043;-85
2022/11/01 23:47:43;;;;;;;38.22;18.25;;;;;;;;;;8362966;28;20037;-85
2022/11/01 23:51:46;;;;;;;38.03;18.02;;;;;;;;;;8355124;28;20483;-87
2022/11/01 23:55:52;;;;;;;49.25;21.52;;;;;;;;;;8346096;28;20053;-85
2022/11/01 23:59:58;;;;;;;36.40;18.00;;;;;;;;;;8351104;28;20061;-84
